Hickman, Nebraska
Current Conditions -  °F | °C
As of 12:54 AM on Sunday 23 Nov 2014 (Local Time) from KLNK Reporting Station
Overcast Overcast  
Wind Chill: 56°   Ceiling: 2400
Heat Index: 56°   Visibility: 10mi
Dew Point: 51°   Wind: 10mph
Humidity: 84%   Direction: 180°S
Pressure: 29.53"   Gusts: NA
Location:  40.62°N, 96.63°W
Report Text: KLNK 230654Z AUTO 18009KT 10SM OVC024 13/11 A2953 RMK AO2 SLP999 T01330106
Loading
Personal Weather Stations






























Interactive Weather Map New forecast layout! Learn more

10-Day Weather Forecast

Advertisements
Track Severe Weather on mobile